sensor_id;sensor_type;location;lat;lon;timestamp;pressure;altitude;pressure_sealevel;temperature;humidity
19797;BME280;10058;57.654;12.044;2024-03-22T00:02:10;100576.13;;;7.38;100.00
19797;BME280;10058;57.654;12.044;2024-03-22T00:04:36;100549.28;;;7.23;100.00
19797;BME280;10058;57.654;12.044;2024-03-22T00:07:01;100550.38;;;7.29;100.00
19797;BME280;10058;57.654;12.044;2024-03-22T00:09:26;100540.06;;;7.12;100.00
19797;BME280;10058;57.654;12.044;2024-03-22T00:11:51;100537.19;;;7.28;100.00
19797;BME280;10058;57.654;12.044;2024-03-22T00:14:17;100527.00;;;7.37;100.00
19797;BME280;10058;57.654;12.044;2024-03-22T00:16:42;100531.81;;;7.49;100.00
19797;BME280;10058;57.654;12.044;2024-03-22T00:19:07;100528.94;;;7.41;100.00
19797;BME280;10058;57.654;12.044;2024-03-22T00:21:32;100539.03;;;7.30;100.00
19797;BME280;10058;57.654;12.044;2024-03-22T00:23:57;100531.31;;;7.35;100.00
19797;BME280;10058;57.654;12.044;2024-03-22T00:26:23;100528.69;;;7.35;100.00
19797;BME280;10058;57.654;12.044;2024-03-22T00:28:48;100539.56;;;7.44;100.00
19797;BME280;10058;57.654;12.044;2024-03-22T00:31:14;100529.25;;;7.50;100.00
19797;BME280;10058;57.654;12.044;2024-03-22T00:33:39;100526.63;;;7.50;100.00
19797;BME280;10058;57.654;12.044;2024-03-22T00:36:04;100524.63;;;7.43;100.00
19797;BME280;10058;57.654;12.044;2024-03-22T00:38:30;100527.50;;;7.51;100.00
19797;BME280;10058;57.654;12.044;2024-03-22T00:40:55;100513.69;;;7.56;100.00
19797;BME280;10058;57.654;12.044;2024-03-22T00:43:20;100501.38;;;7.55;100.00
19797;BME280;10058;57.654;12.044;2024-03-22T00:45:46;100485.91;;;7.64;100.00
19797;BME280;10058;57.654;12.044;2024-03-22T00:48:11;100484.94;;;7.37;100.00
19797;BME280;10058;57.654;12.044;2024-03-22T00:50:36;100479.16;;;7.47;100.00
19797;BME280;10058;57.654;12.044;2024-03-22T00:53:01;100487.06;;;7.47;100.00
19797;BME280;10058;57.654;12.044;2024-03-22T00:55:28;100475.09;;;7.55;100.00
19797;BME280;10058;57.654;12.044;2024-03-22T00:57:53;100468.09;;;7.56;100.00
19797;BME280;10058;57.654;12.044;2024-03-22T01:00:18;100463.56;;;7.52;100.00
19797;BME280;10058;57.654;12.044;2024-03-22T01:02:44;100461.03;;;7.55;100.00
19797;BME280;10058;57.654;12.044;2024-03-22T01:05:09;100459.72;;;7.67;100.00
19797;BME280;10058;57.654;12.044;2024-03-22T01:07:35;100450.56;;;7.56;100.00
19797;BME280;10058;57.654;12.044;2024-03-22T01:10:00;100438.56;;;7.64;100.00
19797;BME280;10058;57.654;12.044;2024-03-22T01:12:25;100446.41;;;7.63;100.00
19797;BME280;10058;57.654;12.044;2024-03-22T01:14:50;100429.16;;;7.71;100.00
19797;BME280;10058;57.654;12.044;2024-03-22T01:17:15;100422.88;;;7.67;100.00
19797;BME280;10058;57.654;12.044;2024-03-22T01:19:41;100421.00;;;7.63;100.00
19797;BME280;10058;57.654;12.044;2024-03-22T01:22:06;100426.78;;;7.79;100.00
19797;BME280;10058;57.654;12.044;2024-03-22T01:24:31;100415.06;;;7.69;100.00
19797;BME280;10058;57.654;12.044;2024-03-22T01:26:56;100412.56;;;7.74;100.00
19797;BME280;10058;57.654;12.044;2024-03-22T01:29:21;100414.16;;;7.68;100.00
19797;BME280;10058;57.654;12.044;2024-03-22T01:31:47;100425.28;;;7.87;100.00
19797;BME280;10058;57.654;12.044;2024-03-22T01:34:12;100403.22;;;7.83;100.00
19797;BME280;10058;57.654;12.044;2024-03-22T01:36:38;100411.41;;;7.91;100.00
19797;BME280;10058;57.654;12.044;2024-03-22T01:39:03;100400.66;;;7.85;100.00
19797;BME280;10058;57.654;12.044;2024-03-22T01:41:28;100386.66;;;7.86;100.00
19797;BME280;10058;57.654;12.044;2024-03-22T01:43:54;100386.75;;;7.89;100.00
19797;BME280;10058;57.654;12.044;2024-03-22T01:46:19;100368.97;;;7.82;100.00
19797;BME280;10058;57.654;12.044;2024-03-22T01:48:44;100382.09;;;7.80;100.00
19797;BME280;10058;57.654;12.044;2024-03-22T01:51:09;100378.03;;;7.90;100.00
19797;BME280;10058;57.654;12.044;2024-03-22T01:53:34;100373.81;;;7.95;100.00
19797;BME280;10058;57.654;12.044;2024-03-22T01:56:00;100363.03;;;7.87;100.00
19797;BME280;10058;57.654;12.044;2024-03-22T01:58:26;100370.72;;;8.08;100.00
19797;BME280;10058;57.654;12.044;2024-03-22T02:00:51;100359.13;;;8.03;100.00
19797;BME280;10058;57.654;12.044;2024-03-22T02:03:16;100364.19;;;7.97;100.00
19797;BME280;10058;57.654;12.044;2024-03-22T02:05:41;100354.81;;;8.05;100.00
19797;BME280;10058;57.654;12.044;2024-03-22T02:08:06;100348.97;;;7.87;100.00
19797;BME280;10058;57.654;12.044;2024-03-22T02:10:31;100349.25;;;7.94;100.00
19797;BME280;10058;57.654;12.044;2024-03-22T02:12:57;100339.78;;;8.01;100.00
19797;BME280;10058;57.654;12.044;2024-03-22T02:15:22;100350.19;;;7.98;100.00
19797;BME280;10058;57.654;12.044;2024-03-22T02:17:47;100327.66;;;8.06;100.00
19797;BME280;10058;57.654;12.044;2024-03-22T02:20:12;100315.25;;;8.02;100.00
19797;BME280;10058;57.654;12.044;2024-03-22T02:22:38;100308.38;;;8.07;100.00
19797;BME280;10058;57.654;12.044;2024-03-22T02:25:03;100303.31;;;8.13;100.00
19797;BME280;10058;57.654;12.044;2024-03-22T02:27:28;100299.75;;;8.11;100.00
19797;BME280;10058;57.654;12.044;2024-03-22T02:29:53;100305.16;;;8.17;100.00
19797;BME280;10058;57.654;12.044;2024-03-22T02:32:19;100287.88;;;8.25;100.00
19797;BME280;10058;57.654;12.044;2024-03-22T02:34:44;100292.78;;;8.13;100.00
19797;BME280;10058;57.654;12.044;2024-03-22T02:37:09;100301.69;;;8.18;100.00
19797;BME280;10058;57.654;12.044;2024-03-22T02:39:34;100288.03;;;8.31;100.00
19797;BME280;10058;57.654;12.044;2024-03-22T02:41:59;100275.56;;;8.24;100.00
19797;BME280;10058;57.654;12.044;2024-03-22T02:44:25;100270.47;;;8.30;100.00
19797;BME280;10058;57.654;12.044;2024-03-22T02:46:50;100288.53;;;8.18;100.00
19797;BME280;10058;57.654;12.044;2024-03-22T02:49:15;100277.44;;;8.28;100.00
19797;BME280;10058;57.654;12.044;2024-03-22T02:51:40;100272.22;;;8.31;100.00
19797;BME280;10058;57.654;12.044;2024-03-22T02:54:05;100261.22;;;8.43;100.00
19797;BME280;10058;57.654;12.044;2024-03-22T02:56:30;100252.44;;;8.14;100.00
19797;BME280;10058;57.654;12.044;2024-03-22T02:58:56;100257.31;;;8.30;100.00
19797;BME280;10058;57.654;12.044;2024-03-22T03:01:21;100252.66;;;8.22;100.00
19797;BME280;10058;57.654;12.044;2024-03-22T03:03:46;100236.72;;;8.17;100.00
19797;BME280;10058;57.654;12.044;2024-03-22T03:06:11;100240.47;;;8.25;100.00
19797;BME280;10058;57.654;12.044;2024-03-22T03:08:38;100228.44;;;8.33;100.00
19797;BME280;10058;57.654;12.044;2024-03-22T03:11:03;100228.16;;;8.24;100.00
19797;BME280;10058;57.654;12.044;2024-03-22T03:13:28;100233.00;;;8.39;100.00
19797;BME280;10058;57.654;12.044;2024-03-22T03:15:54;100235.75;;;8.44;100.00
19797;BME280;10058;57.654;12.044;2024-03-22T03:18:19;100223.34;;;8.40;100.00
19797;BME280;10058;57.654;12.044;2024-03-22T03:20:44;100221.22;;;8.26;100.00
19797;BME280;10058;57.654;12.044;2024-03-22T03:23:09;100223.19;;;8.33;100.00
19797;BME280;10058;57.654;12.044;2024-03-22T03:25:34;100214.69;;;8.44;100.00
19797;BME280;10058;57.654;12.044;2024-03-22T03:27:59;100199.53;;;8.35;100.00
19797;BME280;10058;57.654;12.044;2024-03-22T03:30:25;100205.84;;;8.42;100.00
19797;BME280;10058;57.654;12.044;2024-03-22T03:32:51;100197.03;;;8.40;100.00
19797;BME280;10058;57.654;12.044;2024-03-22T03:35:16;100193.38;;;8.34;100.00
19797;BME280;10058;57.654;12.044;2024-03-22T03:37:41;100198.50;;;8.31;100.00
19797;BME280;10058;57.654;12.044;2024-03-22T03:40:06;100210.31;;;8.44;100.00
19797;BME280;10058;57.654;12.044;2024-03-22T03:42:32;100206.94;;;8.48;100.00
19797;BME280;10058;57.654;12.044;2024-03-22T03:44:57;100209.44;;;8.44;100.00
19797;BME280;10058;57.654;12.044;2024-03-22T03:47:22;100205.38;;;8.56;100.00
19797;BME280;10058;57.654;12.044;2024-03-22T03:49:47;100208.78;;;8.52;100.00
19797;BME280;10058;57.654;12.044;2024-03-22T03:52:13;100198.41;;;8.58;100.00
19797;BME280;10058;57.654;12.044;2024-03-22T03:54:38;100186.09;;;8.57;100.00
19797;BME280;10058;57.654;12.044;2024-03-22T03:57:03;100183.59;;;8.62;100.00
19797;BME280;10058;57.654;12.044;2024-03-22T03:59:28;100184.44;;;8.61;100.00
19797;BME280;10058;57.654;12.044;2024-03-22T04:01:54;100180.94;;;8.62;100.00
19797;BME280;10058;57.654;12.044;2024-03-22T04:04:19;100177.38;;;8.60;100.00
19797;BME280;10058;57.654;12.044;2024-03-22T04:06:44;100178.41;;;8.66;100.00
19797;BME280;10058;57.654;12.044;2024-03-22T04:09:09;100161.78;;;8.69;100.00
19797;BME280;10058;57.654;12.044;2024-03-22T04:11:34;100152.66;;;8.55;100.00
19797;BME280;10058;57.654;12.044;2024-03-22T04:14:00;100155.31;;;8.56;100.00
19797;BME280;10058;57.654;12.044;2024-03-22T04:16:25;100155.59;;;8.67;100.00
19797;BME280;10058;57.654;12.044;2024-03-22T04:18:50;100151.88;;;8.59;100.00
19797;BME280;10058;57.654;12.044;2024-03-22T04:21:16;100146.53;;;8.56;100.00
19797;BME280;10058;57.654;12.044;2024-03-22T04:23:42;100130.69;;;8.54;100.00
19797;BME280;10058;57.654;12.044;2024-03-22T04:26:07;100125.53;;;8.59;100.00
19797;BME280;10058;57.654;12.044;2024-03-22T04:28:32;100141.66;;;8.71;100.00
19797;BME280;10058;57.654;12.044;2024-03-22T04:30:58;100141.66;;;8.71;100.00
19797;BME280;10058;57.654;12.044;2024-03-22T04:33:24;100133.38;;;8.56;100.00
19797;BME280;10058;57.654;12.044;2024-03-22T04:35:49;100122.19;;;8.66;100.00
19797;BME280;10058;57.654;12.044;2024-03-22T04:38:14;100112.50;;;8.63;100.00
19797;BME280;10058;57.654;12.044;2024-03-22T04:40:40;100110.03;;;8.71;100.00
19797;BME280;10058;57.654;12.044;2024-03-22T04:43:05;100113.38;;;8.64;100.00
19797;BME280;10058;57.654;12.044;2024-03-22T04:45:31;100110.41;;;8.86;100.00
19797;BME280;10058;57.654;12.044;2024-03-22T04:47:56;100095.44;;;8.85;100.00
19797;BME280;10058;57.654;12.044;2024-03-22T04:50:21;100096.44;;;8.90;100.00
19797;BME280;10058;57.654;12.044;2024-03-22T04:52:46;100103.41;;;8.88;100.00
19797;BME280;10058;57.654;12.044;2024-03-22T04:55:11;100115.59;;;8.83;100.00
19797;BME280;10058;57.654;12.044;2024-03-22T04:57:36;100103.66;;;8.97;100.00
19797;BME280;10058;57.654;12.044;2024-03-22T05:00:02;100097.41;;;8.94;100.00
19797;BME280;10058;57.654;12.044;2024-03-22T05:02:27;100084.28;;;8.95;100.00
19797;BME280;10058;57.654;12.044;2024-03-22T05:04:53;100073.66;;;8.92;100.00
19797;BME280;10058;57.654;12.044;2024-03-22T05:07:18;100076.84;;;8.78;100.00
19797;BME280;10058;57.654;12.044;2024-03-22T05:09:43;100073.38;;;8.80;100.00
19797;BME280;10058;57.654;12.044;2024-03-22T05:12:08;100073.38;;;8.80;100.00
19797;BME280;10058;57.654;12.044;2024-03-22T05:14:33;100065.16;;;8.68;100.00
19797;BME280;10058;57.654;12.044;2024-03-22T05:16:58;100064.56;;;8.78;100.00
19797;BME280;10058;57.654;12.044;2024-03-22T05:19:24;100073.38;;;8.80;100.00
19797;BME280;10058;57.654;12.044;2024-03-22T05:21:49;100059.28;;;8.78;100.00
19797;BME280;10058;57.654;12.044;2024-03-22T05:24:14;100050.59;;;8.82;100.00
19797;BME280;10058;57.654;12.044;2024-03-22T05:26:39;100056.91;;;8.90;100.00
19797;BME280;10058;57.654;12.044;2024-03-22T05:29:05;100050.72;;;8.88;100.00
19797;BME280;10058;57.654;12.044;2024-03-22T05:31:30;100038.28;;;8.81;100.00
19797;BME280;10058;57.654;12.044;2024-03-22T05:33:55;100029.63;;;8.88;100.00
19797;BME280;10058;57.654;12.044;2024-03-22T05:36:20;100045.53;;;8.91;100.00
19797;BME280;10058;57.654;12.044;2024-03-22T05:38:46;100041.31;;;9.01;100.00
19797;BME280;10058;57.654;12.044;2024-03-22T05:41:11;100010.34;;;8.89;100.00
19797;BME280;10058;57.654;12.044;2024-03-22T05:43:36;100013.16;;;8.97;100.00
19797;BME280;10058;57.654;12.044;2024-03-22T05:46:01;100024.69;;;9.03;100.00
19797;BME280;10058;57.654;12.044;2024-03-22T05:48:26;100024.59;;;8.97;100.00
19797;BME280;10058;57.654;12.044;2024-03-22T05:50:52;100026.69;;;9.14;100.00
19797;BME280;10058;57.654;12.044;2024-03-22T05:53:17;100008.22;;;9.12;100.00
19797;BME280;10058;57.654;12.044;2024-03-22T05:55:42;100026.41;;;9.01;100.00
19797;BME280;10058;57.654;12.044;2024-03-22T05:58:08;100023.25;;;9.16;100.00
19797;BME280;10058;57.654;12.044;2024-03-22T06:00:34;100018.03;;;9.21;100.00
19797;BME280;10058;57.654;12.044;2024-03-22T06:02:59;100018.00;;;9.18;100.00
19797;BME280;10058;57.654;12.044;2024-03-22T06:05:24;100006.75;;;9.26;100.00
19797;BME280;10058;57.654;12.044;2024-03-22T06:07:50;100018.94;;;9.21;100.00
19797;BME280;10058;57.654;12.044;2024-03-22T06:10:15;100014.63;;;9.25;100.00
19797;BME280;10058;57.654;12.044;2024-03-22T06:12:41;100014.44;;;9.16;100.00
19797;BME280;10058;57.654;12.044;2024-03-22T06:15:07;100001.44;;;9.25;100.00
19797;BME280;10058;57.654;12.044;2024-03-22T06:17:32;100000.56;;;9.26;100.00
19797;BME280;10058;57.654;12.044;2024-03-22T06:19:58;100002.38;;;9.28;100.00
19797;BME280;10058;57.654;12.044;2024-03-22T06:22:24;99990.88;;;9.25;100.00
19797;BME280;10058;57.654;12.044;2024-03-22T06:24:50;99969.06;;;9.32;100.00
19797;BME280;10058;57.654;12.044;2024-03-22T06:27:15;99972.41;;;9.23;100.00
19797;BME280;10058;57.654;12.044;2024-03-22T06:29:40;99972.28;;;9.19;100.00
19797;BME280;10058;57.654;12.044;2024-03-22T06:32:06;99974.03;;;9.17;100.00
19797;BME280;10058;57.654;12.044;2024-03-22T06:34:31;99978.78;;;9.36;100.00
19797;BME280;10058;57.654;12.044;2024-03-22T06:36:56;99976.13;;;9.33;100.00
19797;BME280;10058;57.654;12.044;2024-03-22T06:39:22;99981.25;;;9.27;100.00
19797;BME280;10058;57.654;12.044;2024-03-22T06:41:47;99971.56;;;9.26;100.00
19797;BME280;10058;57.654;12.044;2024-03-22T06:44:12;99958.25;;;9.20;100.00
19797;BME280;10058;57.654;12.044;2024-03-22T06:46:39;99963.50;;;9.17;100.00
19797;BME280;10058;57.654;12.044;2024-03-22T06:49:04;99957.44;;;9.22;100.00
19797;BME280;10058;57.654;12.044;2024-03-22T06:51:29;99964.34;;;9.16;100.00
19797;BME280;10058;57.654;12.044;2024-03-22T06:53:54;99951.19;;;9.17;100.00
19797;BME280;10058;57.654;12.044;2024-03-22T06:56:19;99952.94;;;9.17;100.00
19797;BME280;10058;57.654;12.044;2024-03-22T06:58:45;99940.56;;;9.13;100.00
19797;BME280;10058;57.654;12.044;2024-03-22T07:01:10;99953.03;;;9.23;100.00
19797;BME280;10058;57.654;12.044;2024-03-22T07:03:35;99960.00;;;9.18;100.00
19797;BME280;10058;57.654;12.044;2024-03-22T07:06:00;99937.16;;;9.20;100.00
19797;BME280;10058;57.654;12.044;2024-03-22T07:08:25;99945.91;;;9.16;100.00
19797;BME280;10058;57.654;12.044;2024-03-22T07:10:51;99943.97;;;9.08;100.00
19797;BME280;10058;57.654;12.044;2024-03-22T07:13:18;99943.56;;;9.31;100.00
19797;BME280;10058;57.654;12.044;2024-03-22T07:15:44;99937.28;;;9.26;100.00
19797;BME280;10058;57.654;12.044;2024-03-22T07:18:09;99943.31;;;9.20;100.00
19797;BME280;10058;57.654;12.044;2024-03-22T07:20:35;99940.78;;;9.25;100.00
19797;BME280;10058;57.654;12.044;2024-03-22T07:23:00;99940.84;;;9.28;100.00
19797;BME280;10058;57.654;12.044;2024-03-22T07:25:25;99942.44;;;9.20;100.00
19797;BME280;10058;57.654;12.044;2024-03-22T07:27:50;99940.06;;;9.32;100.00
19797;BME280;10058;57.654;12.044;2024-03-22T07:30:15;99935.50;;;9.25;100.00
19797;BME280;10058;57.654;12.044;2024-03-22T07:32:41;99925.31;;;9.43;100.00
19797;BME280;10058;57.654;12.044;2024-03-22T07:35:06;99931.88;;;9.20;100.00
19797;BME280;10058;57.654;12.044;2024-03-22T07:37:34;99918.69;;;9.18;100.00
19797;BME280;10058;57.654;12.044;2024-03-22T07:40:00;99919.88;;;9.35;100.00
19797;BME280;10058;57.654;12.044;2024-03-22T07:42:25;99927.78;;;9.34;100.00
19797;BME280;10058;57.654;12.044;2024-03-22T07:44:50;99924.13;;;9.27;100.00
19797;BME280;10058;57.654;12.044;2024-03-22T07:47:16;99918.97;;;9.32;100.00
19797;BME280;10058;57.654;12.044;2024-03-22T07:49:41;99912.63;;;9.24;100.00
19797;BME280;10058;57.654;12.044;2024-03-22T07:52:06;99918.31;;;9.45;100.00
19797;BME280;10058;57.654;12.044;2024-03-22T07:54:31;99898.66;;;9.28;100.00
19797;BME280;10058;57.654;12.044;2024-03-22T07:56:57;99916.41;;;9.38;100.00
19797;BME280;10058;57.654;12.044;2024-03-22T07:59:22;99919.88;;;9.34;100.00
19797;BME280;10058;57.654;12.044;2024-03-22T08:01:47;99917.06;;;9.25;100.00
19797;BME280;10058;57.654;12.044;2024-03-22T08:04:13;99926.94;;;9.35;100.00
19797;BME280;10058;57.654;12.044;2024-03-22T08:06:38;99914.47;;;9.28;100.00
19797;BME280;10058;57.654;12.044;2024-03-22T08:09:03;99910.06;;;9.27;100.00
19797;BME280;10058;57.654;12.044;2024-03-22T08:11:28;99904.16;;;9.40;100.00
19797;BME280;10058;57.654;12.044;2024-03-22T08:13:54;99899.31;;;9.15;100.00
19797;BME280;10058;57.654;12.044;2024-03-22T08:16:26;99908.19;;;9.21;100.00
19797;BME280;10058;57.654;12.044;2024-03-22T08:18:52;99901.25;;;9.26;100.00
19797;BME280;10058;57.654;12.044;2024-03-22T08:21:17;99903.81;;;9.22;100.00
19797;BME280;10058;57.654;12.044;2024-03-22T08:23:42;99897.16;;;9.42;100.00
19797;BME280;10058;57.654;12.044;2024-03-22T08:26:07;99885.22;;;9.14;100.00
19797;BME280;10058;57.654;12.044;2024-03-22T08:28:33;99897.03;;;9.34;100.00
19797;BME280;10058;57.654;12.044;2024-03-22T08:30:58;99893.34;;;9.26;100.00
19797;BME280;10058;57.654;12.044;2024-03-22T08:33:24;99902.09;;;9.24;100.00
19797;BME280;10058;57.654;12.044;2024-03-22T08:35:49;99904.78;;;9.27;100.00
19797;BME280;10058;57.654;12.044;2024-03-22T08:38:14;99901.44;;;9.34;100.00
19797;BME280;10058;57.654;12.044;2024-03-22T08:40:39;99900.72;;;9.44;100.00
19797;BME280;10058;57.654;12.044;2024-03-22T08:43:05;99909.44;;;9.40;100.00
19797;BME280;10058;57.654;12.044;2024-03-22T08:45:32;99907.75;;;9.43;100.00
19797;BME280;10058;57.654;12.044;2024-03-22T08:47:57;99900.59;;;9.38;100.00
19797;BME280;10058;57.654;12.044;2024-03-22T08:50:22;99896.19;;;9.37;100.00
19797;BME280;10058;57.654;12.044;2024-03-22T08:52:47;99908.59;;;9.42;100.00
19797;BME280;10058;57.654;12.044;2024-03-22T08:55:13;99894.69;;;9.53;100.00
19797;BME280;10058;57.654;12.044;2024-03-22T08:57:38;99906.75;;;9.38;100.00
19797;BME280;10058;57.654;12.044;2024-03-22T09:00:03;99899.06;;;9.49;100.00
19797;BME280;10058;57.654;12.044;2024-03-22T09:02:28;99903.88;;;9.25;100.00
19797;BME280;10058;57.654;12.044;2024-03-22T09:04:54;99909.34;;;9.34;100.00
19797;BME280;10058;57.654;12.044;2024-03-22T09:07:19;99906.88;;;9.45;100.00
19797;BME280;10058;57.654;12.044;2024-03-22T09:09:44;99913.00;;;9.42;100.00
19797;BME280;10058;57.654;12.044;2024-03-22T09:12:10;99913.69;;;9.32;100.00
19797;BME280;10058;57.654;12.044;2024-03-22T09:14:35;99908.22;;;9.23;100.00
19797;BME280;10058;57.654;12.044;2024-03-22T09:17:00;99908.75;;;9.50;100.00
19797;BME280;10058;57.654;12.044;2024-03-22T09:19:25;99904.41;;;9.54;100.00
19797;BME280;10058;57.654;12.044;2024-03-22T09:21:50;99903.13;;;9.82;100.00
19797;BME280;10058;57.654;12.044;2024-03-22T09:24:15;99910.94;;;9.75;100.00
19797;BME280;10058;57.654;12.044;2024-03-22T09:26:41;99893.25;;;9.68;100.00
19797;BME280;10058;57.654;12.044;2024-03-22T09:29:06;99897.50;;;9.60;100.00
19797;BME280;10058;57.654;12.044;2024-03-22T09:31:31;99894.25;;;9.76;100.00
19797;BME280;10058;57.654;12.044;2024-03-22T09:33:58;99891.75;;;9.84;100.00
19797;BME280;10058;57.654;12.044;2024-03-22T09:36:23;99895.88;;;9.68;100.00
19797;BME280;10058;57.654;12.044;2024-03-22T09:38:49;99892.78;;;9.94;100.00
19797;BME280;10058;57.654;12.044;2024-03-22T09:41:14;99894.66;;;10.01;100.00
19797;BME280;10058;57.654;12.044;2024-03-22T09:43:40;99889.72;;;10.22;100.00
19797;BME280;10058;57.654;12.044;2024-03-22T09:46:05;99889.59;;;10.16;100.00
19797;BME280;10058;57.654;12.044;2024-03-22T09:48:31;99897.81;;;9.78;100.00
19797;BME280;10058;57.654;12.044;2024-03-22T09:50:57;99908.81;;;9.55;100.00
19797;BME280;10058;57.654;12.044;2024-03-22T09:53:22;99901.75;;;9.52;100.00
19797;BME280;10058;57.654;12.044;2024-03-22T09:55:47;99901.50;;;9.90;100.00
19797;BME280;10058;57.654;12.044;2024-03-22T09:58:13;99896.19;;;9.87;100.00
19797;BME280;10058;57.654;12.044;2024-03-22T10:00:38;99885.66;;;9.90;100.00
19797;BME280;10058;57.654;12.044;2024-03-22T10:03:03;99889.13;;;9.86;100.00
19797;BME280;10058;57.654;12.044;2024-03-22T10:05:29;99878.88;;;10.04;100.00
19797;BME280;10058;57.654;12.044;2024-03-22T10:07:54;99875.06;;;9.87;100.00
19797;BME280;10058;57.654;12.044;2024-03-22T10:10:20;99886.53;;;9.90;100.00
19797;BME280;10058;57.654;12.044;2024-03-22T10:12:46;99883.34;;;10.11;100.00
19797;BME280;10058;57.654;12.044;2024-03-22T10:15:11;99874.06;;;10.34;100.00
19797;BME280;10058;57.654;12.044;2024-03-22T10:17:37;99875.16;;;10.50;100.00
19797;BME280;10058;57.654;12.044;2024-03-22T10:20:03;99869.09;;;10.56;100.00
19797;BME280;10058;57.654;12.044;2024-03-22T10:22:28;99865.44;;;10.48;100.00
19797;BME280;10058;57.654;12.044;2024-03-22T10:24:54;99870.06;;;10.65;100.00
19797;BME280;10058;57.654;12.044;2024-03-22T10:27:19;99864.88;;;10.74;100.00
19797;BME280;10058;57.654;12.044;2024-03-22T10:29:44;99863.31;;;10.87;100.00
19797;BME280;10058;57.654;12.044;2024-03-22T10:32:10;99859.78;;;10.88;100.00
19797;BME280;10058;57.654;12.044;2024-03-22T10:34:36;99857.28;;;11.00;100.00
19797;BME280;10058;57.654;12.044;2024-03-22T10:37:02;99855.53;;;11.02;100.00
19797;BME280;10058;57.654;12.044;2024-03-22T10:39:28;99849.44;;;11.11;100.00
19797;BME280;10058;57.654;12.044;2024-03-22T10:41:55;99838.31;;;11.44;100.00
19797;BME280;10058;57.654;12.044;2024-03-22T10:44:20;99837.97;;;11.07;100.00
19797;BME280;10058;57.654;12.044;2024-03-22T10:46:46;99846.81;;;11.12;100.00
19797;BME280;10058;57.654;12.044;2024-03-22T10:49:16;99846.59;;;10.91;100.00
19797;BME280;10058;57.654;12.044;2024-03-22T10:51:41;99836.66;;;10.69;100.00
19797;BME280;10058;57.654;12.044;2024-03-22T10:54:09;99834.19;;;10.86;100.00
19797;BME280;10058;57.654;12.044;2024-03-22T10:56:35;99830.00;;;11.04;100.00
19797;BME280;10058;57.654;12.044;2024-03-22T10:59:03;99820.44;;;11.19;100.00
19797;BME280;10058;57.654;12.044;2024-03-22T11:01:28;99816.94;;;11.20;100.00
19797;BME280;10058;57.654;12.044;2024-03-22T11:04:04;99820.22;;;10.97;100.00
19797;BME280;10058;57.654;12.044;2024-03-22T11:06:34;99818.59;;;11.11;100.00
19797;BME280;10058;57.654;12.044;2024-03-22T11:09:01;99811.59;;;11.16;100.00
19797;BME280;10058;57.654;12.044;2024-03-22T11:11:29;99796.84;;;11.41;100.00
19797;BME280;10058;57.654;12.044;2024-03-22T11:13:56;99790.66;;;11.38;100.00
19797;BME280;10058;57.654;12.044;2024-03-22T11:16:21;99786.28;;;11.46;100.00
19797;BME280;10058;57.654;12.044;2024-03-22T11:18:46;99757.72;;;11.02;100.00
19797;BME280;10058;57.654;12.044;2024-03-22T11:21:12;99782.53;;;11.18;100.00
19797;BME280;10058;57.654;12.044;2024-03-22T11:23:38;99784.31;;;11.21;100.00
19797;BME280;10058;57.654;12.044;2024-03-22T11:26:03;99771.25;;;11.39;100.00
19797;BME280;10058;57.654;12.044;2024-03-22T11:28:29;99767.06;;;11.68;100.00
19797;BME280;10058;57.654;12.044;2024-03-22T11:30:54;99763.44;;;11.54;100.00
19797;BME280;10058;57.654;12.044;2024-03-22T11:33:19;99751.88;;;11.40;100.00
19797;BME280;10058;57.654;12.044;2024-03-22T11:35:45;99749.63;;;11.99;100.00
19797;BME280;10058;57.654;12.044;2024-03-22T11:38:10;99749.47;;;11.75;100.00
19797;BME280;10058;57.654;12.044;2024-03-22T11:40:35;99723.81;;;11.66;100.00
19797;BME280;10058;57.654;12.044;2024-03-22T11:43:01;99714.44;;;12.25;100.00
19797;BME280;10058;57.654;12.044;2024-03-22T11:45:27;99706.44;;;12.08;100.00
19797;BME280;10058;57.654;12.044;2024-03-22T11:47:53;99711.72;;;12.05;100.00
19797;BME280;10058;57.654;12.044;2024-03-22T11:50:18;99706.50;;;12.23;100.00
19797;BME280;10058;57.654;12.044;2024-03-22T11:52:44;99709.09;;;12.17;100.00
19797;BME280;10058;57.654;12.044;2024-03-22T11:55:13;99704.75;;;12.31;100.00
19797;BME280;10058;57.654;12.044;2024-03-22T11:57:39;99702.22;;;12.86;100.00
19797;BME280;10058;57.654;12.044;2024-03-22T12:00:04;99694.28;;;12.80;100.00
19797;BME280;10058;57.654;12.044;2024-03-22T12:02:34;99702.13;;;12.36;100.00
19797;BME280;10058;57.654;12.044;2024-03-22T12:05:00;99699.50;;;12.43;100.00
19797;BME280;10058;57.654;12.044;2024-03-22T12:07:25;99711.75;;;12.17;100.00
19797;BME280;10058;57.654;12.044;2024-03-22T12:09:50;99712.66;;;12.17;100.00
19797;BME280;10058;57.654;12.044;2024-03-22T12:12:17;99706.59;;;12.66;100.00
19797;BME280;10058;57.654;12.044;2024-03-22T12:14:42;99683.66;;;12.89;100.00
19797;BME280;10058;57.654;12.044;2024-03-22T12:17:07;99687.28;;;13.15;100.00
19797;BME280;10058;57.654;12.044;2024-03-22T12:19:33;99687.19;;;12.85;100.00
19797;BME280;10058;57.654;12.044;2024-03-22T12:21:59;99689.78;;;12.51;100.00
19797;BME280;10058;57.654;12.044;2024-03-22T12:24:24;99688.63;;;11.79;100.00
19797;BME280;10058;57.654;12.044;2024-03-22T12:26:50;99687.03;;;12.18;100.00
19797;BME280;10058;57.654;12.044;2024-03-22T12:29:15;99688.91;;;12.46;100.00
19797;BME280;10058;57.654;12.044;2024-03-22T12:31:40;99679.25;;;12.89;100.00
19797;BME280;10058;57.654;12.044;2024-03-22T12:34:06;99680.13;;;12.90;100.00